Wetterdaten: Woche 13.02.17 - 19.02.17 (KW7)
Datum Zeit Temp. A. Feuchte A. Luftdruck Regen Wind Richtung Taupunkt Windchill Windben
13.02.2017 00:00 -1,5 C 93 % 1027,2 hPa 0,0 l/m 3,4 km/h (1 Bft) S-SW -2,5 C -1,5 C 8,2 km/h (2 Bft)
13.02.2017 01:00 -1,7 C 93 % 1027,3 hPa 0,0 l/m 3,5 km/h (1 Bft) S-SW -2,6 C -1,7 C 10,6 km/h (2 Bft)
13.02.2017 02:00 -1,7 C 94 % 1027,4 hPa 0,0 l/m 2,8 km/h (1 Bft) W -2,6 C -1,7 C 8,6 km/h (2 Bft)
13.02.2017 03:00 -1,7 C 94 % 1027,2 hPa 0,0 l/m 1,7 km/h (1 Bft) SW -2,5 C -1,7 C 6,0 km/h (2 Bft)
13.02.2017 04:00 -1,5 C 93 % 1026,9 hPa 0,0 l/m 1,7 km/h (1 Bft) SW -2,5 C -1,5 C 5,1 km/h (1 Bft)
13.02.2017 05:00 -1,4 C 92 % 1027,1 hPa 0,0 l/m 3,8 km/h (1 Bft) W -2,5 C -1,5 C 9,7 km/h (2 Bft)
13.02.2017 06:00 -1,5 C 92 % 1027,2 hPa 0,0 l/m 3,5 km/h (1 Bft) W-NW -2,6 C -1,5 C 9,9 km/h (2 Bft)
13.02.2017 07:00 -1,5 C 93 % 1027,3 hPa 0,0 l/m 3,3 km/h (1 Bft) SW -2,5 C -1,5 C 9,9 km/h (2 Bft)
13.02.2017 08:00 -1,4 C 92 % 1027,3 hPa 0,0 l/m 3,4 km/h (1 Bft) SW -2,6 C -1,4 C 9,7 km/h (2 Bft)
13.02.2017 09:00 -1,2 C 92 % 1027,3 hPa 0,0 l/m 3,6 km/h (1 Bft) W -2,4 C -1,2 C 10,2 km/h (2 Bft)
13.02.2017 10:00 -1,0 C 91 % 1027,3 hPa 0,0 l/m 4,0 km/h (1 Bft) W-SW -2,3 C -1,0 C 11,2 km/h (2 Bft)
13.02.2017 11:00 -0,5 C 89 % 1027,3 hPa 0,0 l/m 4,3 km/h (1 Bft) W-SW -2,0 C -0,5 C 11,0 km/h (2 Bft)
13.02.2017 12:00 0,1 C 87 % 1027,0 hPa 0,0 l/m 5,4 km/h (2 Bft) W -1,8 C -0,2 C 11,5 km/h (2 Bft)
13.02.2017 13:00 0,6 C 86 % 1026,6 hPa 0,0 l/m 5,3 km/h (1 Bft) SW -1,5 C 0,6 C 14,1 km/h (3 Bft)
13.02.2017 14:00 1,0 C 85 % 1026,3 hPa 0,0 l/m 5,1 km/h (1 Bft) W-NW -1,2 C 1,0 C 12,8 km/h (3 Bft)
13.02.2017 15:00 1,3 C 84 % 1026,1 hPa 0,0 l/m 4,5 km/h (1 Bft) S-SW -1,1 C 1,3 C 12,0 km/h (2 Bft)
13.02.2017 16:00 1,3 C 84 % 1026,0 hPa 0,0 l/m 4,0 km/h (1 Bft) W-NW -1,1 C 1,3 C 10,9 km/h (2 Bft)
13.02.2017 17:00 0,7 C 85 % 1026,1 hPa 0,0 l/m 3,5 km/h (1 Bft) W-NW -1,6 C 0,7 C 9,7 km/h (2 Bft)
13.02.2017 18:00 0,3 C 85 % 1026,3 hPa 0,0 l/m 3,7 km/h (1 Bft) S-SW -1,9 C 0,3 C 10,1 km/h (2 Bft)
13.02.2017 19:00 -0,4 C 87 % 1026,4 hPa 0,0 l/m 3,5 km/h (1 Bft) S-SW -2,3 C -0,4 C 10,3 km/h (2 Bft)
13.02.2017 20:00 -1,0 C 89 % 1026,4 hPa 0,0 l/m 1,3 km/h (1 Bft) SW -2,6 C -1,0 C 4,7 km/h (1 Bft)
13.02.2017 21:00 -1,7 C 90 % 1026,3 hPa 0,0 l/m 0,3 km/h (0 Bft) S-SW -3,1 C -1,7 C 2,0 km/h (1 Bft)
13.02.2017 22:00 -2,9 C 92 % 1026,2 hPa 0,0 l/m 0,0 km/h (0 Bft) S-SW -3,9 C -2,9 C 0,3 km/h (0 Bft)
13.02.2017 23:00 -3,6 C 94 % 1026,2 hPa 0,0 l/m 0,0 km/h (0 Bft) S-SW -4,4 C -3,6 C 0,7 km/h (0 Bft)
14.02.2017 00:00 -3,9 C 94 % 1026,6 hPa 0,0 l/m 0,0 km/h (0 Bft) S-SW -4,7 C -3,9 C 0,2 km/h (0 Bft)
14.02.2017 01:00 -4,6 C 95 % 1026,9 hPa 0,0 l/m 0,0 km/h (0 Bft) S-SW -5,3 C -4,6 C 0,3 km/h (0 Bft)
14.02.2017 02:00 -4,9 C 95 % 1027,1 hPa 0,0 l/m 0,0 km/h (0 Bft) S-SW -5,5 C -4,9 C 0,1 km/h (0 Bft)
14.02.2017 03:00 -5,3 C 95 % 1027,2 hPa 0,0 l/m 0,0 km/h (0 Bft) S-SW -6,0 C -5,3 C 0,3 km/h (0 Bft)
14.02.2017 04:00 -5,7 C 95 % 1027,6 hPa 0,0 l/m 0,0 km/h (0 Bft) S-SW -6,4 C -5,7 C 0,4 km/h (0 Bft)
14.02.2017 05:00 -6,0 C 95 % 1027,9 hPa 0,0 l/m 0,1 km/h (0 Bft) S-SW -6,7 C -6,0 C 0,5 km/h (0 Bft)
14.02.2017 06:00 -6,2 C 94 % 1028,1 hPa 0,0 l/m 0,0 km/h (0 Bft) S-SW -7,0 C -6,2 C 0,8 km/h (0 Bft)
14.02.2017 07:00 -6,5 C 94 % 1028,8 hPa 0,0 l/m 0,1 km/h (0 Bft) S-SW -7,2 C -6,5 C 0,8 km/h (0 Bft)
14.02.2017 08:00 -5,6 C 95 % 1029,5 hPa 0,0 l/m 0,0 km/h (0 Bft) S-SW -6,3 C -5,6 C 0,5 km/h (0 Bft)
14.02.2017 09:00 -2,5 C 93 % 1030,3 hPa 0,0 l/m 0,6 km/h (0 Bft) S-SW -3,4 C -2,5 C 2,1 km/h (1 Bft)
14.02.2017 10:00 1,3 C 86 % 1030,5 hPa 0,0 l/m 1,4 km/h (1 Bft) W -0,9 C 1,3 C 3,6 km/h (1 Bft)
14.02.2017 11:00 4,8 C 76 % 1030,6 hPa 0,0 l/m 1,8 km/h (1 Bft) O-SO 0,8 C 4,8 C 4,3 km/h (1 Bft)
14.02.2017 12:00 6,9 C 69 % 1030,5 hPa 0,0 l/m 2,0 km/h (1 Bft) W 1,7 C 6,9 C 4,3 km/h (1 Bft)
14.02.2017 13:00 9,2 C 60 % 1030,4 hPa 0,0 l/m 2,3 km/h (1 Bft) NW 1,8 C 9,2 C 5,1 km/h (1 Bft)
14.02.2017 14:00 10,6 C 53 % 1030,4 hPa 0,0 l/m 2,3 km/h (1 Bft) W-NW 1,5 C 10,6 C 5,3 km/h (1 Bft)
14.02.2017 15:00 11,6 C 50 % 1030,6 hPa 0,0 l/m 1,7 km/h (1 Bft) N-NO 1,5 C 11,6 C 4,0 km/h (1 Bft)
14.02.2017 16:00 11,6 C 52 % 1030,7 hPa 0,0 l/m 0,5 km/h (0 Bft) N-NO 2,1 C 11,6 C 2,1 km/h (1 Bft)
14.02.2017 17:00 7,2 C 64 % 1031,4 hPa 0,0 l/m 0,0 km/h (0 Bft) NW 0,7 C 7,2 C 1,0 km/h (0 Bft)
14.02.2017 18:00 3,6 C 75 % 1032,0 hPa 0,0 l/m 0,0 km/h (0 Bft) NW -0,3 C 3,6 C 0,2 km/h (0 Bft)
14.02.2017 19:00 0,5 C 85 % 1032,5 hPa 0,0 l/m 0,0 km/h (0 Bft) NW -1,7 C 0,5 C 0,3 km/h (0 Bft)
14.02.2017 20:00 -1,2 C 90 % 1032,9 hPa 0,0 l/m 0,0 km/h (0 Bft) NW -2,7 C -1,2 C 0,0 km/h (0 Bft)
14.02.2017 21:00 -1,9 C 92 % 1033,6 hPa 0,0 l/m 0,0 km/h (0 Bft) NW -3,1 C -1,9 C 0,0 km/h (0 Bft)
14.02.2017 22:00 -2,5 C 93 % 1033,8 hPa 0,0 l/m 0,0 km/h (0 Bft) NW -3,5 C -2,5 C 0,3 km/h (0 Bft)
14.02.2017 23:00 -2,9 C 94 % 1034,0 hPa 0,0 l/m 0,0 km/h (0 Bft) NW -3,7 C -2,9 C 0,0 km/h (0 Bft)
15.02.2017 00:00 -3,2 C 94 % 1034,3 hPa 0,0 l/m 0,0 km/h (0 Bft) NW -4,1 C -3,2 C 0,0 km/h (0 Bft)
15.02.2017 01:00 -3,5 C 95 % 1034,3 hPa 0,0 l/m 0,0 km/h (0 Bft) NW -4,2 C -3,5 C 0,4 km/h (0 Bft)
15.02.2017 02:00 -3,3 C 95 % 1034,2 hPa 0,0 l/m 0,0 km/h (0 Bft) NW -3,9 C -3,3 C 0,4 km/h (0 Bft)
15.02.2017 03:00 -3,8 C 95 % 1034,3 hPa 0,0 l/m 0,0 km/h (0 Bft) NW -4,5 C -3,8 C 0,1 km/h (0 Bft)
15.02.2017 04:00 -4,0 C 95 % 1034,8 hPa 0,0 l/m 0,1 km/h (0 Bft) NW -4,7 C -4,0 C 0,4 km/h (0 Bft)
15.02.2017 05:00 -4,0 C 96 % 1035,2 hPa 0,0 l/m 0,1 km/h (0 Bft) NW -4,5 C -4,0 C 0,4 km/h (0 Bft)
15.02.2017 06:00 -3,8 C 96 % 1035,2 hPa 0,0 l/m 0,0 km/h (0 Bft) NW -4,3 C -3,8 C 0,5 km/h (0 Bft)
15.02.2017 07:00 -3,7 C 95 % 1035,3 hPa 0,0 l/m 0,0 km/h (0 Bft) NW -4,3 C -3,7 C 0,4 km/h (0 Bft)
15.02.2017 08:00 -2,7 C 96 % 1035,7 hPa 0,0 l/m 0,0 km/h (0 Bft) NW -3,2 C -2,7 C 0,0 km/h (0 Bft)
15.02.2017 09:00 0,8 C 91 % 1035,8 hPa 0,0 l/m 0,2 km/h (0 Bft) NW -0,5 C 0,8 C 1,1 km/h (0 Bft)
15.02.2017 10:00 4,5 C 80 % 1035,8 hPa 0,0 l/m 1,4 km/h (1 Bft) N-NW 1,3 C 4,5 C 3,2 km/h (1 Bft)
15.02.2017 11:00 9,8 C 62 % 1035,5 hPa 0,0 l/m 2,7 km/h (1 Bft) NW 2,5 C 9,8 C 5,6 km/h (2 Bft)
15.02.2017 12:00 13,2 C 43 % 1035,1 hPa 0,0 l/m 5,2 km/h (1 Bft) NO 0,9 C 13,1 C 10,9 km/h (2 Bft)
15.02.2017 13:00 14,5 C 40 % 1034,7 hPa 0,0 l/m 5,3 km/h (1 Bft) NO 1,1 C 14,5 C 12,0 km/h (2 Bft)
15.02.2017 14:00 15,6 C 39 % 1034,5 hPa 0,0 l/m 4,1 km/h (1 Bft) O-NO 1,6 C 15,6 C 9,4 km/h (2 Bft)
15.02.2017 15:00 15,6 C 38 % 1034,5 hPa 0,0 l/m 4,1 km/h (1 Bft) O-NO 1,4 C 15,6 C 9,5 km/h (2 Bft)
15.02.2017 16:00 14,5 C 42 % 1034,7 hPa 0,0 l/m 3,3 km/h (1 Bft) O 1,7 C 14,5 C 7,0 km/h (2 Bft)
15.02.2017 17:00 10,5 C 54 % 1035,0 hPa 0,0 l/m 0,5 km/h (0 Bft) O 1,5 C 10,5 C 1,6 km/h (1 Bft)
15.02.2017 18:00 6,7 C 67 % 1035,4 hPa 0,0 l/m 0,0 km/h (0 Bft) O 0,9 C 6,7 C 0,5 km/h (0 Bft)
15.02.2017 19:00 3,0 C 79 % 1035,7 hPa 0,0 l/m 0,0 km/h (0 Bft) O -0,3 C 3,0 C 0,3 km/h (0 Bft)
15.02.2017 20:00 1,1 C 84 % 1035,7 hPa 0,0 l/m 0,0 km/h (0 Bft) O -1,2 C 1,1 C 0,0 km/h (0 Bft)
15.02.2017 21:00 0,1 C 88 % 1036,0 hPa 0,0 l/m 0,0 km/h (0 Bft) O -1,6 C 0,1 C 0,4 km/h (0 Bft)
15.02.2017 22:00 -0,8 C 90 % 1035,8 hPa 0,0 l/m 0,0 km/h (0 Bft) O -2,2 C -0,8 C 0,3 km/h (0 Bft)
15.02.2017 23:00 -1,2 C 92 % 1035,6 hPa 0,0 l/m 0,1 km/h (0 Bft) O -2,3 C -1,2 C 0,8 km/h (0 Bft)
16.02.2017 00:00 -1,8 C 93 % 1035,6 hPa 0,0 l/m 0,1 km/h (0 Bft) O -2,8 C -1,8 C 0,4 km/h (0 Bft)
16.02.2017 01:00 -2,4 C 94 % 1035,5 hPa 0,0 l/m 0,0 km/h (0 Bft) O -3,2 C -2,4 C 0,3 km/h (0 Bft)
16.02.2017 02:00 -2,4 C 94 % 1035,3 hPa 0,0 l/m 0,0 km/h (0 Bft) O -3,2 C -2,4 C 0,5 km/h (0 Bft)
16.02.2017 03:00 -2,8 C 95 % 1034,9 hPa 0,0 l/m 0,0 km/h (0 Bft) O -3,5 C -2,8 C 0,1 km/h (0 Bft)
16.02.2017 04:00 -2,9 C 95 % 1034,7 hPa 0,0 l/m 0,1 km/h (0 Bft) O -3,6 C -2,9 C 0,7 km/h (0 Bft)
16.02.2017 05:00 -2,8 C 95 % 1034,5 hPa 0,0 l/m 0,1 km/h (0 Bft) O -3,5 C -2,8 C 0,3 km/h (0 Bft)
16.02.2017 06:00 -3,1 C 95 % 1034,3 hPa 0,0 l/m 0,0 km/h (0 Bft) O -3,8 C -3,1 C 0,0 km/h (0 Bft)
16.02.2017 07:00 -3,3 C 96 % 1034,2 hPa 0,0 l/m 0,0 km/h (0 Bft) O -3,9 C -3,3 C 0,1 km/h (0 Bft)
16.02.2017 08:00 -1,9 C 96 % 1034,2 hPa 0,0 l/m 0,1 km/h (0 Bft) O -2,4 C -1,9 C 0,4 km/h (0 Bft)
16.02.2017 09:00 1,7 C 90 % 1033,8 hPa 0,3 l/m 0,4 km/h (0 Bft) O 0,2 C 1,7 C 1,5 km/h (1 Bft)
16.02.2017 10:00 6,4 C 77 % 1033,1 hPa 0,0 l/m 1,4 km/h (1 Bft) O-NO 2,7 C 6,4 C 3,1 km/h (1 Bft)
16.02.2017 11:00 11,4 C 63 % 1032,6 hPa 0,0 l/m 3,7 km/h (1 Bft) N-NO 4,5 C 11,3 C 7,9 km/h (2 Bft)
16.02.2017 12:00 13,1 C 56 % 1032,0 hPa 0,0 l/m 5,2 km/h (1 Bft) O-NO 4,6 C 13,0 C 10,6 km/h (2 Bft)
16.02.2017 13:00 14,4 C 50 % 1031,0 hPa 0,0 l/m 5,9 km/h (2 Bft) NO 4,0 C 14,3 C 13,8 km/h (3 Bft)
16.02.2017 14:00 14,9 C 43 % 1030,2 hPa 0,0 l/m 4,6 km/h (1 Bft) N-NO 2,4 C 14,9 C 10,9 km/h (2 Bft)
16.02.2017 15:00 15,0 C 42 % 1029,7 hPa 0,0 l/m 4,6 km/h (1 Bft) O-NO 2,1 C 15,0 C 11,5 km/h (2 Bft)
16.02.2017 16:00 14,2 C 45 % 1029,5 hPa 0,0 l/m 3,4 km/h (1 Bft) O 2,4 C 14,2 C 8,4 km/h (2 Bft)
16.02.2017 17:00 10,8 C 57 % 1029,4 hPa 0,0 l/m 0,7 km/h (0 Bft) O-NO 2,6 C 10,8 C 2,2 km/h (1 Bft)
16.02.2017 18:00 7,6 C 69 % 1029,4 hPa 0,0 l/m 0,0 km/h (0 Bft) O-NO 2,2 C 7,6 C 0,2 km/h (0 Bft)
16.02.2017 19:00 5,2 C 80 % 1029,4 hPa 0,0 l/m 0,1 km/h (0 Bft) O-NO 2,0 C 5,2 C 0,4 km/h (0 Bft)
16.02.2017 20:00 6,8 C 85 % 1029,4 hPa 0,3 l/m 3,3 km/h (1 Bft) O-NO 4,4 C 6,7 C 8,1 km/h (2 Bft)
16.02.2017 21:00 6,5 C 91 % 1029,1 hPa 0,0 l/m 0,5 km/h (0 Bft) O-SO 5,1 C 6,5 C 2,1 km/h (1 Bft)
16.02.2017 22:00 5,3 C 94 % 1028,6 hPa 0,0 l/m 0,4 km/h (0 Bft) O-SO 4,4 C 5,3 C 1,7 km/h (1 Bft)
16.02.2017 23:00 5,0 C 95 % 1028,2 hPa 0,0 l/m 0,1 km/h (0 Bft) O-SO 4,4 C 5,0 C 0,7 km/h (0 Bft)
17.02.2017 00:00 5,2 C 96 % 1027,9 hPa 1,0 l/m 0,2 km/h (0 Bft) N 4,5 C 5,2 C 1,0 km/h (0 Bft)
17.02.2017 01:00 5,6 C 96 % 1027,5 hPa 1,0 l/m 0,2 km/h (0 Bft) SO 4,9 C 5,6 C 1,6 km/h (1 Bft)
17.02.2017 02:00 5,2 C 96 % 1027,1 hPa 0,5 l/m 0,0 km/h (0 Bft) SO 4,5 C 5,2 C 0,4 km/h (0 Bft)
17.02.2017 03:00 5,3 C 97 % 1026,5 hPa 0,0 l/m 0,6 km/h (0 Bft) O 4,8 C 5,3 C 2,7 km/h (1 Bft)
17.02.2017 04:00 5,7 C 96 % 1026,0 hPa 0,8 l/m 1,3 km/h (1 Bft) O-NO 5,1 C 5,7 C 4,9 km/h (1 Bft)
17.02.2017 05:00 5,4 C 95 % 1025,7 hPa 0,0 l/m 0,5 km/h (0 Bft) O-NO 4,7 C 5,4 C 1,8 km/h (1 Bft)
17.02.2017 06:00 5,3 C 95 % 1025,5 hPa 1,0 l/m 0,2 km/h (0 Bft) SO 4,5 C 5,3 C 1,2 km/h (1 Bft)
17.02.2017 07:00 4,3 C 94 % 1025,8 hPa 1,8 l/m 1,3 km/h (1 Bft) O-NO 3,4 C 4,3 C 4,4 km/h (1 Bft)
17.02.2017 08:00 3,5 C 95 % 1026,3 hPa 1,3 l/m 0,7 km/h (0 Bft) O 2,8 C 3,5 C 3,1 km/h (1 Bft)
17.02.2017 09:00 3,2 C 95 % 1026,4 hPa 0,8 l/m 2,3 km/h (1 Bft) O-NO 2,4 C 3,2 C 5,6 km/h (2 Bft)
17.02.2017 10:00 3,1 C 95 % 1026,3 hPa 0,5 l/m 3,8 km/h (1 Bft) NO 2,3 C 3,1 C 9,5 km/h (2 Bft)
17.02.2017 11:00 3,6 C 94 % 1026,5 hPa 0,0 l/m 5,7 km/h (2 Bft) O-NO 2,7 C 3,5 C 12,3 km/h (2 Bft)
17.02.2017 12:00 3,9 C 93 % 1026,5 hPa 0,0 l/m 3,2 km/h (1 Bft) O-NO 2,8 C 3,9 C 5,7 km/h (2 Bft)
17.02.2017 13:00 5,0 C 91 % 1026,2 hPa 0,0 l/m 3,1 km/h (1 Bft) O-NO 3,7 C 5,0 C 5,5 km/h (2 Bft)
17.02.2017 14:00 5,7 C 87 % 1026,1 hPa 0,0 l/m 3,1 km/h (1 Bft) O-NO 3,7 C 5,7 C 5,6 km/h (2 Bft)
17.02.2017 15:00 5,5 C 88 % 1026,1 hPa 0,0 l/m 2,2 km/h (1 Bft) O 3,7 C 5,5 C 3,8 km/h (1 Bft)
17.02.2017 16:00 5,5 C 87 % 1026,1 hPa 0,0 l/m 2,5 km/h (1 Bft) O-NO 3,5 C 5,5 C 4,7 km/h (1 Bft)
17.02.2017 17:00 4,7 C 88 % 1026,2 hPa 0,0 l/m 1,1 km/h (1 Bft) NO 2,9 C 4,7 C 3,3 km/h (1 Bft)
17.02.2017 18:00 4,2 C 92 % 1026,6 hPa 0,0 l/m 0,4 km/h (0 Bft) NO 2,9 C 4,2 C 1,3 km/h (1 Bft)
17.02.2017 19:00 3,7 C 94 % 1026,9 hPa 0,3 l/m 1,2 km/h (1 Bft) O-NO 2,9 C 3,7 C 3,6 km/h (1 Bft)
17.02.2017 20:00 3,2 C 95 % 1026,8 hPa 0,8 l/m 0,4 km/h (0 Bft) O-NO 2,6 C 3,2 C 1,7 km/h (1 Bft)
17.02.2017 21:00 3,3 C 96 % 1027,3 hPa 1,3 l/m 0,8 km/h (0 Bft) O-SO 2,7 C 3,3 C 2,5 km/h (1 Bft)
17.02.2017 22:00 2,8 C 95 % 1027,5 hPa 0,8 l/m 0,5 km/h (0 Bft) N-NW 2,1 C 2,8 C 1,7 km/h (1 Bft)
17.02.2017 23:00 2,5 C 96 % 1027,4 hPa 0,0 l/m 0,1 km/h (0 Bft) N-NW 2,0 C 2,5 C 0,8 km/h (0 Bft)
18.02.2017 00:00 2,4 C 96 % 1027,4 hPa 0,0 l/m 0,1 km/h (0 Bft) NW 1,9 C 2,4 C 0,3 km/h (0 Bft)
18.02.2017 01:00 2,2 C 97 % 1027,1 hPa 0,0 l/m 0,0 km/h (0 Bft) NW 1,7 C 2,2 C 0,3 km/h (0 Bft)
18.02.2017 02:00 2,1 C 97 % 1027,1 hPa 0,0 l/m 0,0 km/h (0 Bft) NW 1,6 C 2,1 C 0,5 km/h (0 Bft)
18.02.2017 03:00 2,0 C 97 % 1027,0 hPa 0,0 l/m 0,0 km/h (0 Bft) NW 1,6 C 2,0 C 0,7 km/h (0 Bft)
18.02.2017 04:00 2,0 C 97 % 1026,8 hPa 0,0 l/m 0,1 km/h (0 Bft) NW 1,6 C 2,0 C 0,9 km/h (0 Bft)
18.02.2017 05:00 1,6 C 97 % 1026,8 hPa 0,0 l/m 0,0 km/h (0 Bft) NW 1,2 C 1,6 C 0,2 km/h (0 Bft)
18.02.2017 06:00 1,4 C 97 % 1027,1 hPa 0,0 l/m 0,0 km/h (0 Bft) NW 0,9 C 1,4 C 0,1 km/h (0 Bft)
18.02.2017 07:00 1,4 C 98 % 1027,4 hPa 0,0 l/m 0,2 km/h (0 Bft) NW 1,1 C 1,4 C 1,5 km/h (1 Bft)
18.02.2017 08:00 1,2 C 97 % 1027,5 hPa 0,0 l/m 0,4 km/h (0 Bft) S-SW 0,8 C 1,2 C 1,9 km/h (1 Bft)
18.02.2017 09:00 1,2 C 98 % 1027,6 hPa 0,0 l/m 0,3 km/h (0 Bft) S-SW 0,9 C 1,2 C 2,1 km/h (1 Bft)
18.02.2017 10:00 2,3 C 98 % 1027,7 hPa 0,0 l/m 0,5 km/h (0 Bft) W-SW 2,0 C 2,3 C 2,0 km/h (1 Bft)
18.02.2017 11:00 3,2 C 94 % 1027,6 hPa 0,0 l/m 2,0 km/h (1 Bft) W 2,3 C 3,2 C 4,4 km/h (1 Bft)
18.02.2017 12:00 3,9 C 88 % 1027,3 hPa 0,0 l/m 1,7 km/h (1 Bft) W-NW 2,0 C 3,9 C 4,8 km/h (1 Bft)
18.02.2017 13:00 6,2 C 79 % 1026,3 hPa 0,0 l/m 3,0 km/h (1 Bft) W-NW 2,9 C 6,2 C 6,8 km/h (2 Bft)
18.02.2017 14:00 7,0 C 70 % 1025,7 hPa 0,0 l/m 3,3 km/h (1 Bft) W-NW 1,9 C 7,0 C 8,2 km/h (2 Bft)
18.02.2017 15:00 6,6 C 69 % 1025,5 hPa 0,0 l/m 1,9 km/h (1 Bft) W-NW 1,2 C 6,6 C 5,7 km/h (2 Bft)
18.02.2017 16:00 6,1 C 74 % 1025,5 hPa 0,0 l/m 1,1 km/h (1 Bft) W 1,7 C 6,1 C 3,5 km/h (1 Bft)
18.02.2017 17:00 4,8 C 82 % 1025,9 hPa 0,0 l/m 0,8 km/h (0 Bft) SW 2,1 C 4,8 C 2,7 km/h (1 Bft)
18.02.2017 18:00 4,1 C 84 % 1025,9 hPa 0,0 l/m 0,5 km/h (0 Bft) SW 1,6 C 4,1 C 2,7 km/h (1 Bft)
18.02.2017 19:00 1,2 C 91 % 1026,0 hPa 0,0 l/m 0,1 km/h (0 Bft) SW -0,1 C 1,2 C 0,8 km/h (0 Bft)
18.02.2017 20:00 -0,6 C 93 % 1026,0 hPa 0,0 l/m 0,0 km/h (0 Bft) SW -1,6 C -0,6 C 0,3 km/h (0 Bft)
18.02.2017 21:00 -1,4 C 95 % 1026,2 hPa 0,0 l/m 0,0 km/h (0 Bft) SW -2,1 C -1,4 C 0,0 km/h (0 Bft)
18.02.2017 22:00 -2,0 C 95 % 1026,3 hPa 0,0 l/m 0,0 km/h (0 Bft) SW -2,7 C -2,0 C 0,1 km/h (0 Bft)
18.02.2017 23:00 -2,4 C 96 % 1026,3 hPa 0,0 l/m 0,0 km/h (0 Bft) SW -3,0 C -2,4 C 0,7 km/h (0 Bft)
19.02.2017 00:00 -2,5 C 96 % 1026,3 hPa 0,0 l/m 0,0 km/h (0 Bft) SW -3,1 C -2,5 C 0,3 km/h (0 Bft)
19.02.2017 01:00 -2,8 C 96 % 1026,2 hPa 0,0 l/m 0,0 km/h (0 Bft) SW -3,4 C -2,8 C 0,0 km/h (0 Bft)
19.02.2017 02:00 -3,0 C 96 % 1026,1 hPa 0,0 l/m 0,1 km/h (0 Bft) SW -3,6 C -3,0 C 0,9 km/h (0 Bft)
19.02.2017 03:00 -3,5 C 96 % 1025,8 hPa 0,0 l/m 0,1 km/h (0 Bft) SW -4,1 C -3,5 C 1,1 km/h (0 Bft)
19.02.2017 04:00 -4,4 C 95 % 1025,6 hPa 0,0 l/m 0,0 km/h (0 Bft) SW -5,0 C -4,4 C 0,1 km/h (0 Bft)
19.02.2017 05:00 -5,0 C 95 % 1025,5 hPa 0,0 l/m 0,1 km/h (0 Bft) SW -5,6 C -5,0 C 0,3 km/h (0 Bft)
19.02.2017 06:00 -5,2 C 95 % 1025,4 hPa 0,0 l/m 0,0 km/h (0 Bft) SW -5,9 C -5,2 C 0,5 km/h (0 Bft)
19.02.2017 07:00 -5,0 C 96 % 1025,5 hPa 0,0 l/m 0,1 km/h (0 Bft) SW -5,6 C -5,0 C 1,2 km/h (1 Bft)
19.02.2017 08:00 -3,6 C 96 % 1025,7 hPa 0,3 l/m 0,1 km/h (0 Bft) N-NO -4,1 C -3,6 C 0,8 km/h (0 Bft)
19.02.2017 09:00 -0,5 C 96 % 1025,7 hPa 0,0 l/m 0,9 km/h (0 Bft) N-NO -1,1 C -0,5 C 2,5 km/h (1 Bft)
19.02.2017 10:00 3,4 C 89 % 1025,8 hPa 0,3 l/m 2,3 km/h (1 Bft) N 1,7 C 3,4 C 5,5 km/h (2 Bft)
19.02.2017 11:00 6,2 C 77 % 1025,7 hPa 0,0 l/m 4,5 km/h (1 Bft) O-NO 2,4 C 6,2 C 9,9 km/h (2 Bft)
19.02.2017 12:00 7,1 C 73 % 1025,5 hPa 0,0 l/m 4,1 km/h (1 Bft) O-NO 2,5 C 7,1 C 9,2 km/h (2 Bft)
19.02.2017 13:00 5,9 C 74 % 1025,1 hPa 0,0 l/m 4,0 km/h (1 Bft) O-NO 1,7 C 5,9 C 10,1 km/h (2 Bft)
19.02.2017 14:00 5,9 C 74 % 1024,7 hPa 0,0 l/m 3,6 km/h (1 Bft) O-NO 1,7 C 5,9 C 9,1 km/h (2 Bft)
19.02.2017 15:00 6,7 C 73 % 1024,0 hPa 0,0 l/m 4,4 km/h (1 Bft) NO 2,2 C 6,7 C 10,7 km/h (2 Bft)
19.02.2017 16:00 7,4 C 68 % 1023,4 hPa 0,0 l/m 4,5 km/h (1 Bft) O-NO 1,9 C 7,4 C 11,1 km/h (2 Bft)
19.02.2017 17:00 6,7 C 67 % 1023,4 hPa 0,0 l/m 3,6 km/h (1 Bft) O-NO 1,1 C 6,7 C 8,3 km/h (2 Bft)
19.02.2017 18:00 5,5 C 73 % 1023,5 hPa 0,0 l/m 1,5 km/h (1 Bft) O-NO 1,1 C 5,5 C 3,7 km/h (1 Bft)
19.02.2017 19:00 3,5 C 83 % 1023,7 hPa 0,0 l/m 0,9 km/h (0 Bft) S-SO 0,9 C 3,5 C 2,7 km/h (1 Bft)
19.02.2017 20:00 3,3 C 86 % 1024,0 hPa 0,0 l/m 1,2 km/h (1 Bft) O-NO 1,1 C 3,3 C 4,6 km/h (1 Bft)
19.02.2017 21:00 4,6 C 80 % 1024,4 hPa 0,0 l/m 1,3 km/h (1 Bft) O-NO 1,5 C 4,6 C 5,6 km/h (2 Bft)
19.02.2017 22:00 4,8 C 78 % 1024,6 hPa 0,0 l/m 1,5 km/h (1 Bft) O-NO 1,3 C 4,8 C 4,9 km/h (1 Bft)
19.02.2017 23:00 4,6 C 79 % 1024,9 hPa 0,0 l/m 2,1 km/h (1 Bft) O-NO 1,3 C 4,6 C 6,4 km/h (2 Bft)
Min-Datum _ 14.02.17 15.02.17 19.02.17 - 19.02.17 - 14.02.17 14.02.17 19.02.17
_ Min-Zeit 07:30 15:10 17:00 - 22:00 - 07:30 07:30 18:50
Minimum _ -6,6 C 37 % 1023,2 hPa - 0,0 km/h (0 Bft) - -7,4 C -6,6 C 0,0 km/h (0 Bft)
Max-Datum _ 15.02.17 18.02.17 15.02.17 17.02.17 16.02.17 - 16.02.17 15.02.17 19.02.17
_ Max-Zeit 14:55 11:00 21:45 07:00 12:08 - 20:35 14:55 16:40
Maximum _ 16,0 C 98 % 1036,1 hPa 1,8 l/m 9,7 km/h
O-NO (2 Bft)
- 5,5 C 16,0 C 19,3 km/h
O-NO (3 Bft)
Durchschnitt _ 2,3 C 85 % 1028,9 hPa #12,7 l/m 1,4 km/h (1 Bft) O -0,3 C 2,2 C 3,8 km/h (1 Bft)